createdAt,value
2019-04-14T00:01:39.545Z,45.40
2019-04-14T00:06:46.311Z,45.40
2019-04-14T00:11:54.811Z,45.40
2019-04-14T00:17:02.109Z,45.40
2019-04-14T00:22:09.457Z,45.50
2019-04-14T00:27:17.190Z,45.50
2019-04-14T00:32:23.341Z,45.60
2019-04-14T00:37:37.964Z,45.50
2019-04-14T00:43:15.638Z,45.60
2019-04-14T00:48:24.271Z,45.60
2019-04-14T00:53:32.322Z,46.30
2019-04-14T00:58:38.954Z,45.60
2019-04-14T01:03:45.914Z,45.90
2019-04-14T01:08:53.400Z,45.70
2019-04-14T01:14:01.487Z,45.70
2019-04-14T01:19:09.492Z,45.70
2019-04-14T01:24:16.368Z,45.70
2019-04-14T01:29:23.246Z,45.80
2019-04-14T01:34:30.790Z,45.80
2019-04-14T01:39:37.179Z,45.80
2019-04-14T01:44:43.858Z,45.80
2019-04-14T01:49:49.427Z,45.80
2019-04-14T01:55:25.004Z,45.90
2019-04-14T02:00:49.279Z,45.80
2019-04-14T02:05:58.193Z,45.90
2019-04-14T02:11:03.643Z,45.90
2019-04-14T02:16:18.853Z,45.90
2019-04-14T02:21:17.239Z,45.90
2019-04-14T02:26:39.326Z,45.90
2019-04-14T02:32:15.800Z,46.00
2019-04-14T02:37:34.159Z,45.90
2019-04-14T02:58:01.272Z,46.10
2019-04-14T03:03:10.978Z,46.10
2019-04-14T03:08:16.984Z,46.10
2019-04-14T03:13:28.738Z,46.10
2019-04-14T03:19:01.819Z,46.10
2019-04-14T03:24:31.913Z,46.20
2019-04-14T03:29:50.392Z,46.10
2019-04-14T03:35:03.983Z,46.10
2019-04-14T03:40:44.630Z,46.20
2019-04-14T03:45:59.235Z,46.10
2019-04-14T03:51:05.864Z,46.10
2019-04-14T03:56:20.085Z,46.10
2019-04-14T04:01:30.425Z,46.10
2019-04-14T04:06:37.818Z,46.00
2019-04-14T04:11:45.426Z,46.10
2019-04-14T04:17:17.308Z,46.10
2019-04-14T04:22:41.206Z,46.10
2019-04-14T04:28:12.187Z,46.10
2019-04-14T04:33:35.305Z,46.20
2019-04-14T04:38:50.982Z,46.20
2019-04-14T04:43:58.181Z,46.10
2019-04-14T04:49:11.651Z,46.10
2019-04-14T04:54:12.604Z,46.20
2019-04-14T04:59:19.190Z,46.20
2019-04-14T05:04:35.136Z,46.20
2019-04-14T05:10:03.012Z,46.10
2019-04-14T05:15:40.949Z,46.20
2019-04-14T05:20:46.802Z,46.80
2019-04-14T05:26:00.592Z,46.20
2019-04-14T05:31:07.516Z,46.80
2019-04-14T05:36:15.016Z,46.10
2019-04-14T05:41:33.036Z,46.20
2019-04-14T05:46:40.411Z,46.10
2019-04-14T05:51:48.142Z,46.10
2019-04-14T05:56:55.795Z,46.20
2019-04-14T06:02:02.554Z,46.10
2019-04-14T06:07:08.665Z,46.10
2019-04-14T06:12:16.002Z,46.10
2019-04-14T06:17:22.674Z,46.20
2019-04-14T06:22:29.596Z,46.20
2019-04-14T06:27:37.373Z,46.20
2019-04-14T06:32:45.616Z,46.20
2019-04-14T06:38:18.906Z,46.20
2019-04-14T06:43:25.147Z,46.20
2019-04-14T06:48:31.969Z,46.20
2019-04-14T06:53:38.255Z,46.20
2019-04-14T06:58:44.212Z,46.30
2019-04-14T07:04:10.855Z,46.30
2019-04-14T07:09:17.534Z,46.30
2019-04-14T07:14:25.215Z,46.30
2019-04-14T07:19:31.820Z,46.40
2019-04-14T07:24:58.226Z,46.40
2019-04-14T07:30:17.001Z,46.40
2019-04-14T07:35:40.043Z,46.40
2019-04-14T07:40:52.860Z,46.50
2019-04-14T07:46:12.962Z,46.40
2019-04-14T07:51:38.486Z,46.50
2019-04-14T07:57:10.698Z,46.60
2019-04-14T08:02:41.576Z,46.70
2019-04-14T08:07:48.081Z,46.60
2019-04-14T08:12:54.656Z,46.70
2019-04-14T08:18:01.056Z,46.70
2019-04-14T08:23:08.411Z,46.80
2019-04-14T08:28:14.379Z,46.80
2019-04-14T08:33:21.760Z,46.80
2019-04-14T08:38:27.588Z,46.80
2019-04-14T08:43:50.716Z,46.80
2019-04-14T08:49:02.132Z,46.80
2019-04-14T08:54:27.025Z,46.80
2019-04-14T09:00:10.011Z,46.80
2019-04-14T09:05:33.162Z,46.80
2019-04-14T09:10:41.755Z,46.90
2019-04-14T09:15:56.049Z,46.90
2019-04-14T09:21:02.538Z,46.90
2019-04-14T09:26:08.142Z,47.10
2019-04-14T09:31:15.819Z,47.00
2019-04-14T09:36:21.885Z,47.10
2019-04-14T09:41:28.154Z,47.00
2019-04-14T09:46:34.717Z,47.10
2019-04-14T09:51:40.560Z,47.10
2019-04-14T09:56:48.363Z,47.20
2019-04-14T10:01:55.105Z,46.30
2019-04-14T10:07:01.142Z,46.30
2019-04-14T10:12:07.195Z,46.30
2019-04-14T10:17:12.817Z,46.20
2019-04-14T10:22:19.293Z,46.30
2019-04-14T10:27:25.728Z,46.30
2019-04-14T10:32:31.649Z,46.30
2019-04-14T10:37:37.879Z,46.90
2019-04-14T10:42:45.814Z,46.30
2019-04-14T10:47:51.673Z,46.30
2019-04-14T10:53:00.283Z,46.40
2019-04-14T10:58:07.985Z,46.50
2019-04-14T11:03:14.434Z,46.50
2019-04-14T11:08:19.799Z,46.50
2019-04-14T11:13:26.333Z,46.50
2019-04-14T11:18:32.277Z,46.50
2019-04-14T11:23:39.123Z,46.50
2019-04-14T11:28:45.919Z,46.50
2019-04-14T11:34:02.469Z,46.50
2019-04-14T11:39:18.964Z,46.50
2019-04-14T11:44:25.993Z,46.40
2019-04-14T11:49:34.030Z,46.50
2019-04-14T11:54:51.240Z,46.80
2019-04-14T12:00:13.945Z,46.70
2019-04-14T12:05:31.962Z,46.70
2019-04-14T12:10:37.542Z,46.70
2019-04-14T12:15:43.396Z,46.60
2019-04-14T12:20:49.129Z,46.40
2019-04-14T12:26:04.714Z,46.50
2019-04-14T12:31:02.026Z,47.20
2019-04-14T12:36:12.898Z,46.60
2019-04-14T12:47:53.456Z,46.60
2019-04-14T12:53:01.108Z,46.80
2019-04-14T12:58:07.756Z,46.50
2019-04-14T13:03:14.204Z,46.50
2019-04-14T13:08:56.629Z,46.60
2019-04-14T13:14:31.290Z,47.10
2019-04-14T13:19:37.749Z,46.50
2019-04-14T13:24:43.011Z,46.60
2019-04-14T13:35:58.689Z,46.80
2019-04-14T13:41:06.146Z,46.60
2019-04-14T13:46:11.890Z,46.50
2019-04-14T13:51:18.883Z,46.30
2019-04-14T13:56:27.088Z,47.00
2019-04-14T14:01:35.931Z,46.50
2019-04-14T14:06:45.557Z,46.50
2019-04-14T14:12:09.853Z,46.40
2019-04-14T14:17:28.981Z,46.40
2019-04-14T14:22:43.757Z,46.70
2019-04-14T14:27:53.534Z,46.50
2019-04-14T14:33:00.761Z,46.50
2019-04-14T14:38:07.395Z,46.50
2019-04-14T14:43:14.183Z,46.60
2019-04-14T14:48:36.352Z,47.20
2019-04-14T14:53:44.017Z,47.30
2019-04-14T14:58:50.913Z,46.60
2019-04-14T15:04:01.817Z,46.80
2019-04-14T15:09:11.825Z,46.50
2019-04-14T15:14:18.399Z,47.00
2019-04-14T15:19:24.004Z,46.40
2019-04-14T15:24:32.657Z,46.30
2019-04-14T15:29:38.665Z,46.50
2019-04-14T15:34:47.195Z,46.70
2019-04-14T15:40:05.086Z,46.60
2019-04-14T15:45:13.983Z,46.30
2019-04-14T15:50:18.950Z,46.20
2019-04-14T15:55:25.592Z,46.30
2019-04-14T16:00:56.310Z,46.40
2019-04-14T16:06:16.520Z,46.40
2019-04-14T16:12:04.447Z,46.40
2019-04-14T16:17:29.293Z,46.40
2019-04-14T16:22:39.134Z,46.40
2019-04-14T16:28:02.738Z,46.40
2019-04-14T16:33:36.865Z,46.40
2019-04-14T16:38:42.441Z,46.40
2019-04-14T16:43:48.414Z,46.40
2019-04-14T16:48:54.104Z,46.10
2019-04-14T16:54:06.230Z,46.40
2019-04-14T16:59:45.017Z,46.40
2019-04-14T17:04:50.952Z,46.30
2019-04-14T17:09:57.813Z,46.30
2019-04-14T17:15:29.864Z,46.30
2019-04-14T17:21:09.796Z,46.20
2019-04-14T17:26:45.602Z,46.20
2019-04-14T17:32:17.118Z,46.20
2019-04-14T17:38:02.254Z,46.10
2019-04-14T17:43:40.055Z,46.10
2019-04-14T17:48:54.172Z,46.10
2019-04-14T17:54:12.048Z,46.00
2019-04-14T17:59:32.982Z,46.10
2019-04-14T18:05:02.551Z,46.10
2019-04-14T18:10:34.548Z,46.10
2019-04-14T18:15:47.210Z,46.10
2019-04-14T18:20:58.412Z,46.20
2019-04-14T18:26:05.791Z,46.20
2019-04-14T18:31:31.107Z,46.10
2019-04-14T18:36:45.562Z,46.10
2019-04-14T18:42:02.217Z,46.20
2019-04-14T18:47:23.454Z,46.20
2019-04-14T18:53:09.652Z,46.20
2019-04-14T18:58:33.649Z,46.10
2019-04-14T19:03:50.348Z,46.20
2019-04-14T19:08:58.549Z,46.20
2019-04-14T19:14:06.378Z,46.20
2019-04-14T19:19:18.115Z,46.20
2019-04-14T19:24:31.795Z,46.20
2019-04-14T19:29:44.243Z,46.20
2019-04-14T19:34:50.393Z,46.20
2019-04-14T19:40:00.625Z,46.20
2019-04-14T19:45:16.215Z,46.20
2019-04-14T19:50:23.015Z,46.20
2019-04-14T19:55:30.213Z,46.80
2019-04-14T20:00:44.787Z,46.20
2019-04-14T20:05:51.480Z,46.30
2019-04-14T20:10:57.304Z,46.30
2019-04-14T20:16:16.837Z,46.30
2019-04-14T20:21:53.222Z,47.00
2019-04-14T20:27:03.935Z,46.20
2019-04-14T20:32:19.421Z,46.30
2019-04-14T20:37:27.347Z,46.20
2019-04-14T20:42:33.001Z,46.20
2019-04-14T20:47:41.573Z,46.30
2019-04-14T20:52:49.228Z,46.30
2019-04-14T20:57:56.746Z,46.30
2019-04-14T21:03:20.380Z,46.30
2019-04-14T21:09:00.536Z,46.30
2019-04-14T21:14:42.215Z,46.20
2019-04-14T21:19:57.310Z,46.30
2019-04-14T21:25:29.534Z,46.30
2019-04-14T21:31:01.112Z,46.20
2019-04-14T21:36:12.383Z,46.30
2019-04-14T21:41:21.401Z,46.20
2019-04-14T21:46:27.779Z,45.70
2019-04-14T21:52:14.809Z,46.30
2019-04-14T21:57:47.128Z,46.30
2019-04-14T22:03:16.402Z,46.30
2019-04-14T22:08:26.263Z,47.10
2019-04-14T22:13:32.466Z,47.20
2019-04-14T22:18:44.973Z,47.20
2019-04-14T22:24:01.102Z,47.20
2019-04-14T22:29:02.444Z,47.20
2019-04-14T22:34:07.961Z,47.20
2019-04-14T22:39:17.385Z,47.20
2019-04-14T22:44:25.438Z,47.20
2019-04-14T22:49:31.676Z,47.20
2019-04-14T22:54:37.885Z,47.20
2019-04-14T22:59:46.199Z,47.20
2019-04-14T23:05:11.125Z,47.20
2019-04-14T23:10:44.491Z,47.20
2019-04-14T23:15:56.980Z,47.20
2019-04-14T23:21:22.317Z,47.20
2019-04-14T23:26:29.402Z,47.80
2019-04-14T23:31:36.473Z,47.20
2019-04-14T23:36:44.788Z,47.20
2019-04-14T23:41:51.333Z,47.20
2019-04-14T23:46:58.487Z,47.20
2019-04-14T23:52:04.054Z,47.30
2019-04-14T23:57:10.289Z,47.20
